Time;durP1;ratioP1;P1;durP2;ratioP2;P2;SDS_P1;SDS_P2;PMS_P1;PMS_P2;Temp;Humidity;BMP_temperature;BMP_pressure;BME280_temperature;BME280_humidity;BME280_pressure;Samples;Min_cycle;Max_cycle;Signal;HPM_P1;HPM_P2
2024/03/22 00:01:51;;;;;;;13.13;11.70;;;9.50;1.00;;;;;;5102602;27;20512;-76
2024/03/22 00:04:17;;;;;;;14.63;12.90;;;9.50;1.00;;;;;;5101078;27;20476;-77
2024/03/22 00:06:46;;;;;;;17.70;14.10;;;9.50;1.00;;;;;;5108938;27;21042;-78
2024/03/22 00:09:13;;;;;;;14.00;12.60;;;9.50;1.00;;;;;;5077396;27;20492;-77
2024/03/22 00:11:41;;;;;;;13.93;12.53;;;9.50;1.00;;;;;;5099058;28;20477;-75
2024/03/22 00:14:07;;;;;;;15.37;13.77;;;9.50;1.00;;;;;;5099711;27;20477;-75
2024/03/22 00:16:35;;;;;;;14.53;13.10;;;9.30;1.00;;;;;;5095212;27;20507;-77
2024/03/22 00:19:02;;;;;;;14.20;12.63;;;9.30;1.00;;;;;;5102620;28;20609;-75
2024/03/22 00:21:30;;;;;;;14.77;12.33;;;9.20;1.00;;;;;;5104182;27;20473;-75
2024/03/22 00:23:57;;;;;;;14.53;13.03;;;9.20;1.00;;;;;;5099817;28;20455;-76
2024/03/22 00:26:24;;;;;;;14.17;12.57;;;9.10;1.00;;;;;;5089989;27;20499;-75
2024/03/22 00:28:50;;;;;;;14.27;12.80;;;9.10;1.00;;;;;;5094348;27;20478;-77
2024/03/22 00:31:18;;;;;;;14.87;13.40;;;9.10;1.00;;;;;;5090195;27;20451;-75
2024/03/22 00:33:44;;;;;;;17.07;13.77;;;9.10;1.00;;;;;;5098489;27;20532;-78
2024/03/22 00:36:12;;;;;;;14.30;12.80;;;9.10;1.00;;;;;;5093902;27;21243;-76
2024/03/22 00:38:38;;;;;;;16.97;13.40;;;9.10;1.00;;;;;;5098815;28;20473;-75
2024/03/22 00:41:06;;;;;;;14.60;13.10;;;9.10;1.00;;;;;;5102131;28;20915;-77
2024/03/22 00:43:32;;;;;;;17.73;14.30;;;9.20;1.00;;;;;;5102951;27;20515;-79
2024/03/22 00:46:00;;;;;;;14.10;12.70;;;9.20;1.00;;;;;;5105895;28;20957;-76
2024/03/22 00:48:26;;;;;;;15.03;13.47;;;9.30;1.00;;;;;;5096354;27;20557;-77
2024/03/22 00:50:53;;;;;;;14.60;13.10;;;9.30;1.00;;;;;;5082617;27;20796;-76
2024/03/22 00:53:21;;;;;;;14.37;12.87;;;9.40;1.00;;;;;;5088575;27;20588;-75
2024/03/22 00:55:51;;;;;;;15.77;14.07;;;9.40;1.00;;;;;;5081164;27;20470;-79
2024/03/22 00:58:18;;;;;;;15.13;13.63;;;9.40;1.00;;;;;;5102304;27;20473;-77
2024/03/22 01:00:45;;;;;;;16.37;14.00;;;9.40;1.00;;;;;;5102372;27;21242;-75
2024/03/22 01:03:11;;;;;;;15.57;13.90;;;9.40;1.00;;;;;;5097426;28;20541;-75
2024/03/22 01:05:39;;;;;;;14.63;13.20;;;9.40;1.00;;;;;;5097479;28;20469;-75
2024/03/22 01:08:06;;;;;;;16.00;13.03;;;9.40;1.00;;;;;;5101371;28;20466;-75
2024/03/22 01:10:35;;;;;;;14.60;13.10;;;9.40;1.00;;;;;;5095687;27;20455;-77
2024/03/22 01:13:01;;;;;;;16.00;14.40;;;9.40;1.00;;;;;;5098050;27;20521;-76
2024/03/22 01:15:28;;;;;;;14.40;12.90;;;9.40;1.00;;;;;;5098758;27;20512;-76
2024/03/22 01:17:55;;;;;;;14.87;13.30;;;9.30;1.00;;;;;;5091774;27;20482;-77
2024/03/22 01:20:22;;;;;;;15.90;14.07;;;9.20;1.00;;;;;;5089976;27;20466;-77
2024/03/22 01:22:49;;;;;;;16.33;14.63;;;9.10;1.00;;;;;;5085957;27;20458;-77
2024/03/22 01:25:16;;;;;;;17.40;15.33;;;9.10;1.00;;;;;;5077665;27;21031;-76
2024/03/22 01:27:45;;;;;;;16.70;14.40;;;9.10;1.00;;;;;;5078273;28;20481;-76
2024/03/22 01:30:11;;;;;;;16.77;14.97;;;9.10;1.00;;;;;;5092076;27;20545;-77
2024/03/22 01:32:38;;;;;;;17.23;15.40;;;9.00;1.00;;;;;;5102727;27;20492;-78
2024/03/22 01:35:05;;;;;;;16.90;15.10;;;9.00;1.00;;;;;;5100122;28;20553;-77
2024/03/22 01:37:32;;;;;;;17.53;15.73;;;9.00;1.00;;;;;;5101205;28;20462;-78
2024/03/22 01:39:58;;;;;;;15.10;13.23;;;9.00;1.00;;;;;;5098181;28;20550;-77
2024/03/22 01:42:25;;;;;;;18.23;15.67;;;9.00;1.00;;;;;;5100671;27;20474;-76
2024/03/22 01:44:52;;;;;;;16.77;14.33;;;9.10;1.00;;;;;;5098052;28;20465;-77
2024/03/22 01:47:19;;;;;;;16.67;14.17;;;9.10;1.00;;;;;;5102429;27;21002;-77
2024/03/22 01:49:46;;;;;;;17.10;14.13;;;9.10;1.00;;;;;;5103511;27;20461;-77
2024/03/22 01:52:13;;;;;;;19.93;15.60;;;9.20;1.00;;;;;;5099145;27;21012;-76
2024/03/22 01:54:39;;;;;;;15.70;14.10;;;9.10;1.00;;;;;;5091294;27;20868;-77
2024/03/22 01:57:07;;;;;;;15.87;14.17;;;9.10;1.00;;;;;;5101067;27;20498;-77
2024/03/22 01:59:34;;;;;;;18.07;15.60;;;9.20;1.00;;;;;;5102544;28;20454;-78
2024/03/22 02:02:03;;;;;;;15.13;13.50;;;9.10;1.00;;;;;;5092000;27;20475;-78
2024/03/22 02:04:29;;;;;;;17.23;14.07;;;9.20;1.00;;;;;;5202622;22;20925;-76
2024/03/22 02:06:56;;;;;;;22.50;15.57;;;9.20;1.00;;;;;;5104503;22;20455;-75
2024/03/22 02:09:22;;;;;;;20.37;15.80;;;9.10;1.00;;;;;;5097827;27;20462;-76
2024/03/22 02:11:50;;;;;;;20.03;16.00;;;9.10;1.00;;;;;;5107486;27;20523;-75
2024/03/22 02:14:16;;;;;;;20.10;15.57;;;9.20;1.00;;;;;;5104849;27;20488;-76
2024/03/22 02:16:43;;;;;;;18.20;16.17;;;9.20;1.00;;;;;;5099965;27;20493;-76
2024/03/22 02:19:10;;;;;;;16.73;14.50;;;9.20;1.00;;;;;;5104447;27;20470;-77
2024/03/22 02:21:37;;;;;;;15.10;12.93;;;9.20;1.00;;;;;;5087594;27;20478;-74
2024/03/22 02:24:05;;;;;;;17.70;14.77;;;9.20;1.00;;;;;;5087639;27;20462;-75
2024/03/22 02:26:32;;;;;;;17.37;14.73;;;9.20;1.00;;;;;;5085898;27;20458;-76
2024/03/22 02:28:58;;;;;;;17.47;13.90;;;9.20;1.00;;;;;;5081729;27;20521;-79
2024/03/22 02:31:26;;;;;;;21.30;14.87;;;9.10;1.00;;;;;;5082837;27;20512;-79
2024/03/22 02:33:53;;;;;;;17.87;15.67;;;9.10;1.00;;;;;;5083360;27;20466;-81
2024/03/22 02:36:19;;;;;;;18.97;14.57;;;9.00;1.00;;;;;;5079277;27;21245;-81
2024/03/22 02:38:45;;;;;;;16.27;14.27;;;9.00;1.00;;;;;;5074919;27;20544;-81
2024/03/22 02:41:14;;;;;;;20.37;15.80;;;9.00;1.00;;;;;;5078438;28;20574;-78
2024/03/22 02:43:40;;;;;;;19.83;15.40;;;9.00;1.00;;;;;;5078454;27;21266;-80
2024/03/22 02:46:07;;;;;;;19.67;15.30;;;9.00;1.00;;;;;;5084423;27;21004;-82
2024/03/22 02:48:33;;;;;;;20.23;14.20;;;9.00;1.00;;;;;;5102682;27;20570;-77
2024/03/22 02:51:00;;;;;;;22.03;16.43;;;9.00;1.00;;;;;;5107431;27;20446;-81
2024/03/22 02:53:26;;;;;;;17.40;14.40;;;9.00;1.00;;;;;;5102631;27;21195;-80
2024/03/22 02:55:53;;;;;;;17.10;14.60;;;9.00;1.00;;;;;;5097061;27;20476;-81
2024/03/22 02:58:21;;;;;;;18.67;14.57;;;9.00;1.00;;;;;;5104476;27;20454;-77
2024/03/22 03:00:48;;;;;;;19.67;16.37;;;9.00;1.00;;;;;;5084266;27;21133;-81
2024/03/22 03:03:15;;;;;;;21.17;15.60;;;8.90;1.00;;;;;;5097288;27;20468;-81
2024/03/22 03:05:44;;;;;;;19.50;15.27;;;8.90;1.00;;;;;;5102838;27;20490;-76
2024/03/22 03:08:09;;;;;;;21.13;15.77;;;8.90;1.00;;;;;;5104824;27;20503;-81
2024/03/22 03:10:37;;;;;;;19.63;14.30;;;9.00;1.00;;;;;;5106287;27;20498;-78
2024/03/22 03:13:03;;;;;;;19.77;14.90;;;9.00;1.00;;;;;;5097498;27;20480;-80
2024/03/22 03:15:32;;;;;;;19.70;15.03;;;9.00;1.00;;;;;;5105121;27;20449;-80
2024/03/22 03:17:58;;;;;;;22.20;15.27;;;9.10;1.00;;;;;;5104390;27;20591;-81
2024/03/22 03:20:26;;;;;;;18.13;14.27;;;9.10;1.00;;;;;;5093490;27;20473;-76
2024/03/22 03:22:52;;;;;;;18.57;13.80;;;9.10;1.00;;;;;;5095699;27;21639;-81
2024/03/22 03:25:19;;;;;;;14.97;13.03;;;9.10;1.00;;;;;;5104458;27;20458;-81
2024/03/22 03:27:45;;;;;;;18.97;13.87;;;9.10;1.00;;;;;;5104056;27;20519;-82
2024/03/22 03:30:12;;;;;;;17.47;13.63;;;9.10;1.00;;;;;;5091126;27;20523;-81
2024/03/22 03:32:40;;;;;;;21.50;14.20;;;9.10;1.00;;;;;;5099613;27;20611;-78
2024/03/22 03:35:07;;;;;;;21.03;14.30;;;9.00;1.00;;;;;;5089614;27;20459;-81
2024/03/22 03:37:33;;;;;;;17.07;13.20;;;9.00;1.00;;;;;;5079919;27;20538;-80
2024/03/22 03:40:00;;;;;;;20.57;14.30;;;9.00;1.00;;;;;;5096688;27;20973;-76
2024/03/22 03:42:26;;;;;;;17.27;12.70;;;8.90;1.00;;;;;;5089741;27;20556;-76
2024/03/22 03:44:53;;;;;;;19.57;14.90;;;8.90;1.00;;;;;;5093596;27;20556;-77
2024/03/22 03:47:20;;;;;;;15.77;12.10;;;8.90;1.00;;;;;;5102427;27;20458;-78
2024/03/22 03:49:49;;;;;;;18.67;13.80;;;9.00;1.00;;;;;;5080440;27;20458;-76
2024/03/22 03:52:16;;;;;;;17.30;13.20;;;9.10;1.00;;;;;;5097667;27;20835;-77
2024/03/22 03:54:43;;;;;;;18.00;13.80;;;9.10;1.00;;;;;;5103375;27;20742;-77
2024/03/22 03:57:10;;;;;;;16.83;13.57;;;9.10;1.00;;;;;;5104218;27;20474;-77
2024/03/22 03:59:37;;;;;;;19.73;13.63;;;9.20;1.00;;;;;;5100849;27;20575;-77
2024/03/22 04:02:03;;;;;;;18.43;13.77;;;9.10;1.00;;;;;;5103099;27;20508;-77
2024/03/22 04:04:30;;;;;;;17.80;14.00;;;9.00;1.00;;;;;;5100432;27;20465;-77
2024/03/22 04:06:58;;;;;;;16.60;13.33;;;8.90;1.00;;;;;;5098708;27;20453;-74
2024/03/22 04:09:25;;;;;;;18.27;14.23;;;8.90;1.00;;;;;;5101265;27;20466;-75
2024/03/22 04:11:51;;;;;;;18.80;15.03;;;8.80;1.00;;;;;;5098689;27;20455;-77
2024/03/22 04:14:18;;;;;;;22.40;14.80;;;8.90;1.00;;;;;;5105271;27;20460;-76
2024/03/22 04:16:44;;;;;;;16.80;13.13;;;8.90;1.00;;;;;;5097543;27;20497;-77
2024/03/22 04:19:11;;;;;;;18.90;14.00;;;8.90;1.00;;;;;;5100779;27;21283;-77
2024/03/22 04:21:38;;;;;;;18.03;13.90;;;8.90;1.00;;;;;;5105010;27;20846;-76
2024/03/22 04:24:07;;;;;;;18.07;13.23;;;8.90;1.00;;;;;;5102658;27;20846;-77
2024/03/22 04:26:33;;;;;;;18.30;13.53;;;9.00;1.00;;;;;;5104504;27;20454;-78
2024/03/22 04:29:00;;;;;;;16.27;12.77;;;8.90;1.00;;;;;;5103037;27;20469;-76
2024/03/22 04:31:30;;;;;;;17.87;13.00;;;8.90;1.00;;;;;;5101370;27;20461;-77
2024/03/22 04:33:58;;;;;;;18.97;13.00;;;8.90;1.00;;;;;;5101892;27;20508;-76
2024/03/22 04:36:24;;;;;;;16.73;12.90;;;8.80;1.00;;;;;;5101277;27;20549;-76
2024/03/22 04:38:51;;;;;;;20.40;13.67;;;8.80;1.00;;;;;;5095752;27;20458;-77
2024/03/22 04:41:23;;;;;;;14.53;12.50;;;8.80;1.00;;;;;;5100704;27;20454;-77
2024/03/22 04:43:50;;;;;;;16.90;13.87;;;8.80;1.00;;;;;;5099843;27;20466;-76
2024/03/22 04:46:17;;;;;;;17.20;13.37;;;8.70;1.00;;;;;;5100989;27;20830;-77
2024/03/22 04:48:43;;;;;;;15.57;11.83;;;8.70;1.00;;;;;;5100126;27;20570;-76
2024/03/22 04:51:10;;;;;;;18.17;13.20;;;8.80;1.00;;;;;;5103206;27;20449;-79
2024/03/22 04:53:37;;;;;;;16.60;12.97;;;8.80;1.00;;;;;;5102999;27;20493;-81
2024/03/22 04:56:09;;;;;;;16.87;13.00;;;8.80;1.00;;;;;;5096186;27;20953;-81
2024/03/22 04:58:37;;;;;;;16.33;13.80;;;8.80;1.00;;;;;;5095971;27;20478;-80
2024/03/22 05:01:05;;;;;;;23.63;14.03;;;8.80;1.00;;;;;;5086057;28;20539;-79
2024/03/22 05:03:32;;;;;;;14.37;12.30;;;8.90;1.00;;;;;;5086429;28;20904;-81
2024/03/22 05:05:59;;;;;;;16.10;12.70;;;8.90;1.00;;;;;;5091261;27;20423;-81
2024/03/22 05:08:25;;;;;;;16.77;13.43;;;8.80;1.00;;;;;;5084532;27;20557;-81
2024/03/22 05:10:53;;;;;;;19.83;14.43;;;8.80;1.00;;;;;;5080934;27;21416;-79
2024/03/22 05:13:19;;;;;;;18.47;13.30;;;8.80;1.00;;;;;;5083686;28;20454;-81
2024/03/22 05:15:48;;;;;;;18.97;13.83;;;8.80;1.00;;;;;;5084887;28;21032;-79
2024/03/22 05:18:14;;;;;;;22.63;15.37;;;8.80;1.00;;;;;;5097403;27;20470;-81
2024/03/22 05:20:41;;;;;;;18.20;14.60;;;8.90;1.00;;;;;;5088408;27;20512;-80
2024/03/22 05:23:07;;;;;;;15.20;13.00;;;8.90;1.00;;;;;;5085730;27;20454;-77
2024/03/22 05:25:35;;;;;;;22.07;14.43;;;8.90;1.00;;;;;;5087248;27;20427;-79
2024/03/22 05:28:01;;;;;;;20.90;14.43;;;9.00;1.00;;;;;;5084654;28;20468;-80
2024/03/22 05:30:29;;;;;;;17.07;13.90;;;9.00;1.00;;;;;;5087639;28;20473;-82
2024/03/22 05:32:57;;;;;;;19.50;13.63;;;9.00;1.00;;;;;;5087206;27;21265;-79
2024/03/22 05:35:24;;;;;;;16.83;14.13;;;9.00;1.00;;;;;;5101003;27;20560;-80
2024/03/22 05:37:50;;;;;;;19.83;14.57;;;9.00;1.00;;;;;;5104169;27;20559;-82
2024/03/22 05:40:17;;;;;;;21.10;15.17;;;9.00;1.00;;;;;;5106645;27;20580;-80
2024/03/22 05:42:45;;;;;;;24.40;18.10;;;9.10;1.00;;;;;;5104179;27;20538;-76
2024/03/22 05:45:11;;;;;;;19.53;15.07;;;9.10;1.00;;;;;;5099803;27;20458;-78
2024/03/22 05:47:38;;;;;;;19.57;14.57;;;9.20;1.00;;;;;;5109700;27;20447;-76
2024/03/22 05:50:08;;;;;;;20.50;13.47;;;9.10;1.00;;;;;;5107914;27;20450;-75
2024/03/22 05:52:35;;;;;;;19.50;14.60;;;9.20;1.00;;;;;;5106795;27;20474;-74
2024/03/22 05:55:02;;;;;;;19.87;14.53;;;9.30;1.00;;;;;;5101969;27;20471;-75
2024/03/22 05:57:29;;;;;;;16.43;13.20;;;9.40;1.00;;;;;;5085414;28;20463;-76
2024/03/22 05:59:55;;;;;;;15.87;13.10;;;9.40;1.00;;;;;;5092797;27;20928;-72
2024/03/22 06:02:23;;;;;;;19.43;13.00;;;9.40;1.00;;;;;;5086556;27;20486;-72
2024/03/22 06:04:49;;;;;;;20.40;14.20;;;9.40;1.00;;;;;;5086833;27;20950;-72
2024/03/22 06:07:18;;;;;;;19.57;13.97;;;9.50;1.00;;;;;;5092104;27;20481;-71
2024/03/22 06:09:45;;;;;;;20.23;14.10;;;9.50;1.00;;;;;;5083454;28;20950;-71
2024/03/22 06:12:13;;;;;;;16.53;13.57;;;9.60;1.00;;;;;;5083615;27;20455;-72
2024/03/22 06:14:40;;;;;;;16.60;12.83;;;9.60;1.00;;;;;;5095003;27;20546;-72
2024/03/22 06:17:08;;;;;;;16.10;12.80;;;9.70;1.00;;;;;;5110254;27;20488;-71
2024/03/22 06:19:34;;;;;;;20.23;13.03;;;9.60;1.00;;;;;;5108076;27;20520;-73
2024/03/22 06:22:02;;;;;;;17.70;12.40;;;9.70;1.00;;;;;;5099304;27;20984;-70
2024/03/22 06:24:30;;;;;;;17.13;12.33;;;9.60;1.00;;;;;;5104962;27;20956;-72
2024/03/22 06:26:57;;;;;;;16.07;12.93;;;9.60;1.00;;;;;;5103240;27;20477;-73
2024/03/22 06:29:23;;;;;;;16.73;13.13;;;9.60;1.00;;;;;;5102762;27;20489;-73
2024/03/22 06:31:52;;;;;;;17.13;12.83;;;9.50;1.00;;;;;;5092115;27;20486;-74
2024/03/22 06:34:18;;;;;;;17.73;13.67;;;9.60;1.00;;;;;;5096528;27;20489;-75
2024/03/22 06:36:45;;;;;;;16.10;13.30;;;9.70;1.00;;;;;;5080532;28;20519;-74
2024/03/22 06:39:11;;;;;;;20.07;13.33;;;9.70;1.00;;;;;;5080370;27;20452;-70
2024/03/22 06:41:40;;;;;;;18.00;12.70;;;9.70;1.00;;;;;;5076324;28;20455;-70
2024/03/22 06:44:06;;;;;;;14.60;12.27;;;9.70;1.00;;;;;;5082245;28;20459;-69
2024/03/22 06:46:33;;;;;;;16.63;12.73;;;9.80;1.00;;;;;;5082380;27;22278;-71
2024/03/22 06:48:59;;;;;;;19.50;13.90;;;9.80;1.00;;;;;;5099697;27;20557;-71
2024/03/22 06:51:26;;;;;;;19.50;13.67;;;9.80;1.00;;;;;;5097913;27;20483;-71
2024/03/22 06:53:52;;;;;;;14.63;11.17;;;9.90;1.00;;;;;;5101125;27;20481;-71
2024/03/22 06:56:20;;;;;;;20.60;13.10;;;10.10;1.00;;;;;;5105004;27;20474;-70
2024/03/22 06:58:47;;;;;;;17.67;12.80;;;10.20;1.00;;;;;;5103231;27;20449;-70
2024/03/22 07:01:14;;;;;;;19.10;13.10;;;10.20;1.00;;;;;;5105620;27;20464;-69
2024/03/22 07:03:40;;;;;;;17.67;12.20;;;10.30;1.00;;;;;;5102521;27;20466;-71
2024/03/22 07:06:09;;;;;;;19.60;14.80;;;10.30;1.00;;;;;;5100908;27;20473;-73
2024/03/22 07:08:35;;;;;;;16.20;13.57;;;10.30;1.00;;;;;;5103636;27;20489;-69
2024/03/22 07:11:07;;;;;;;16.50;13.20;;;10.20;1.00;;;;;;5103132;27;20450;-74
2024/03/22 07:13:33;;;;;;;18.37;13.70;;;10.10;1.00;;;;;;5103484;27;20577;-73
2024/03/22 07:16:01;;;;;;;23.00;14.53;;;10.10;1.00;;;;;;5103304;27;20469;-73
2024/03/22 07:18:27;;;;;;;18.77;15.40;;;10.30;1.00;;;;;;5104488;27;20545;-73
2024/03/22 07:20:54;;;;;;;23.40;15.20;;;10.40;1.00;;;;;;5101058;27;20972;-73
2024/03/22 07:23:20;;;;;;;23.87;15.97;;;10.50;1.00;;;;;;5105230;27;20454;-73
2024/03/22 07:25:48;;;;;;;17.97;13.77;;;10.50;1.00;;;;;;5101003;27;20477;-74
2024/03/22 07:28:15;;;;;;;17.77;15.67;;;10.50;1.00;;;;;;5104106;27;20466;-72
2024/03/22 07:30:42;;;;;;;22.17;14.83;;;10.60;1.00;;;;;;5100388;27;20905;-72
2024/03/22 07:33:13;;;;;;;24.87;15.90;;;10.60;1.00;;;;;;5102692;27;21263;-71
2024/03/22 07:35:40;;;;;;;19.57;14.77;;;10.70;1.00;;;;;;5089210;27;20996;-73
2024/03/22 07:38:06;;;;;;;19.07;15.23;;;10.70;1.00;;;;;;5079862;27;20454;-74
2024/03/22 07:40:33;;;;;;;17.93;14.50;;;10.70;1.00;;;;;;5086407;27;20470;-73
2024/03/22 07:42:59;;;;;;;21.60;15.60;;;10.70;1.00;;;;;;5073794;27;20974;-73
2024/03/22 07:45:26;;;;;;;21.17;14.90;;;10.70;1.00;;;;;;5077811;28;20606;-75
2024/03/22 07:47:52;;;;;;;20.50;16.53;;;10.70;1.00;;;;;;5080072;27;20561;-74
2024/03/22 07:50:21;;;;;;;21.60;17.30;;;10.70;1.00;;;;;;5088349;27;20619;-73
2024/03/22 07:52:46;;;;;;;21.77;17.57;;;10.60;1.00;;;;;;5079007;28;20890;-75
2024/03/22 07:55:13;;;;;;;22.70;16.87;;;10.80;1.00;;;;;;5091416;27;20472;-72
2024/03/22 07:57:39;;;;;;;19.90;16.70;;;10.90;1.00;;;;;;5096354;27;20976;-75
2024/03/22 08:00:08;;;;;;;25.27;16.60;;;10.90;1.00;;;;;;5096572;27;20449;-75
2024/03/22 08:02:34;;;;;;;20.10;16.00;;;10.90;1.00;;;;;;5101255;27;20872;-74
2024/03/22 08:05:01;;;;;;;25.20;18.33;;;11.00;1.00;;;;;;5097915;27;20554;-75
2024/03/22 08:07:29;;;;;;;20.57;16.97;;;11.10;1.00;;;;;;5096730;27;20457;-73
2024/03/22 08:09:58;;;;;;;23.87;16.47;;;11.20;1.00;;;;;;5099079;27;20529;-73
2024/03/22 08:12:24;;;;;;;25.13;16.90;;;11.20;1.00;;;;;;5091596;27;21055;-77
2024/03/22 08:14:52;;;;;;;21.30;16.03;;;11.20;1.00;;;;;;5100411;27;20507;-74
2024/03/22 08:17:18;;;;;;;23.43;15.70;;;11.30;1.00;;;;;;5098417;27;20463;-73
2024/03/22 08:19:46;;;;;;;17.90;15.47;;;11.30;1.00;;;;;;5096785;27;21067;-78
2024/03/22 08:22:12;;;;;;;25.37;16.70;;;11.30;1.00;;;;;;5095322;27;20893;-74
2024/03/22 08:24:41;;;;;;;24.10;17.60;;;11.20;1.00;;;;;;5099343;27;20470;-73
2024/03/22 08:27:07;;;;;;;26.13;21.10;;;11.30;1.00;;;;;;5098659;27;20454;-76
2024/03/22 08:29:34;;;;;;;23.40;17.40;;;11.30;1.00;;;;;;5096499;27;20462;-74
2024/03/22 08:32:02;;;;;;;21.13;16.87;;;11.50;1.00;;;;;;5104112;27;20461;-75
2024/03/22 08:34:29;;;;;;;23.97;18.13;;;11.50;1.00;;;;;;5097375;27;20997;-76
2024/03/22 08:36:56;;;;;;;23.07;17.70;;;11.60;1.00;;;;;;5098392;27;20542;-74
2024/03/22 08:39:24;;;;;;;23.70;19.67;;;11.60;1.00;;;;;;5094909;27;20455;-76
2024/03/22 08:41:53;;;;;;;21.97;17.60;;;11.60;1.00;;;;;;5095744;27;20592;-74
2024/03/22 08:44:22;;;;;;;22.73;17.00;;;11.70;1.00;;;;;;5100275;27;20473;-76
2024/03/22 08:46:49;;;;;;;26.43;18.60;;;11.70;1.00;;;;;;5102431;27;20478;-76
2024/03/22 08:49:19;;;;;;;22.27;18.47;;;11.70;1.00;;;;;;5101570;27;20912;-74
2024/03/22 08:51:45;;;;;;;23.03;18.23;;;11.80;1.00;;;;;;5101454;27;20455;-78
2024/03/22 08:54:13;;;;;;;22.40;17.87;;;11.90;1.00;;;;;;5103714;27;20658;-79
2024/03/22 08:56:39;;;;;;;23.13;17.23;;;12.00;1.00;;;;;;5100605;27;20454;-79
2024/03/22 08:59:07;;;;;;;20.20;17.10;;;12.10;1.00;;;;;;5104595;27;20463;-78
2024/03/22 09:01:33;;;;;;;22.90;18.70;;;12.10;1.00;;;;;;5084775;27;20503;-78
2024/03/22 09:04:00;;;;;;;19.77;16.40;;;12.10;1.00;;;;;;5100619;27;20471;-78
2024/03/22 09:06:26;;;;;;;21.47;17.93;;;12.20;1.00;;;;;;5082404;27;20518;-76
2024/03/22 09:08:57;;;;;;;20.30;16.00;;;12.20;1.00;;;;;;5066221;27;20541;-79
2024/03/22 09:11:23;;;;;;;19.37;16.60;;;12.20;1.00;;;;;;5081985;27;20550;-77
2024/03/22 09:13:52;;;;;;;19.43;17.33;;;12.40;1.00;;;;;;5081728;27;20471;-81
2024/03/22 09:16:23;;;;;;;20.20;16.67;;;12.50;1.00;;;;;;5082181;28;20459;-76
2024/03/22 09:18:52;;;;;;;19.43;15.50;;;12.70;1.00;;;;;;5092347;27;21391;-78
2024/03/22 09:21:18;;;;;;;22.77;16.23;;;12.80;1.00;;;;;;5084981;28;20485;-83
2024/03/22 09:23:44;;;;;;;21.60;18.00;;;12.90;1.00;;;;;;5083079;27;20492;-80
2024/03/22 09:26:10;;;;;;;23.33;17.40;;;13.00;1.00;;;;;;5082756;28;20469;-83
2024/03/22 09:28:40;;;;;;;20.70;16.50;;;13.10;1.00;;;;;;5081408;27;20850;-79
2024/03/22 09:31:06;;;;;;;20.50;16.30;;;13.40;1.00;;;;;;5087081;27;20471;-78
2024/03/22 09:33:36;;;;;;;21.33;17.63;;;13.60;1.00;;;;;;5089375;27;20468;-77
2024/03/22 09:36:02;;;;;;;22.80;17.80;;;13.70;1.00;;;;;;5099303;27;20523;-77
2024/03/22 09:38:29;;;;;;;20.67;16.60;;;13.60;1.00;;;;;;5089870;27;20457;-77
2024/03/22 09:40:55;;;;;;;22.20;17.47;;;13.50;1.00;;;;;;5088535;27;20543;-77
2024/03/22 09:43:23;;;;;;;19.40;16.70;;;13.40;1.00;;;;;;5090327;27;20480;-76
2024/03/22 09:45:49;;;;;;;18.87;16.13;;;13.40;1.00;;;;;;5091589;27;20563;-74
2024/03/22 09:48:18;;;;;;;19.00;16.10;;;13.50;1.00;;;;;;5105095;27;20474;-75
2024/03/22 09:50:47;;;;;;;21.10;15.63;;;13.70;1.00;;;;;;5097736;27;20530;-75
2024/03/22 09:53:14;;;;;;;36.63;19.03;;;13.80;1.00;;;;;;5097064;27;20498;-74
2024/03/22 09:55:43;;;;;;;19.90;16.73;;;13.70;1.00;;;;;;5099701;27;20459;-73
2024/03/22 09:58:11;;;;;;;22.03;17.33;;;13.70;1.00;;;;;;5097114;27;22394;-72
2024/03/22 10:00:38;;;;;;;19.57;16.63;;;13.50;1.00;;;;;;5095761;27;21491;-74
2024/03/22 10:03:06;;;;;;;20.60;16.30;;;13.50;1.00;;;;;;5096969;27;20488;-72
2024/03/22 10:05:32;;;;;;;21.33;16.40;;;13.50;1.00;;;;;;5099710;27;20478;-72
2024/03/22 10:08:01;;;;;;;22.17;17.20;;;13.50;1.00;;;;;;5100571;27;21429;-72
2024/03/22 10:10:27;;;;;;;19.80;15.47;;;13.60;1.00;;;;;;5103475;27;20971;-72
2024/03/22 10:12:54;;;;;;;24.00;18.20;;;13.60;1.00;;;;;;5089433;27;20705;-72
2024/03/22 10:15:21;;;;;;;24.83;16.67;;;13.80;1.00;;;;;;5080603;27;20485;-73
2024/03/22 10:17:48;;;;;;;20.20;16.57;;;13.90;1.00;;;;;;5077229;27;20469;-72
2024/03/22 10:20:14;;;;;;;23.43;15.77;;;14.00;1.00;;;;;;5092934;27;20452;-73
2024/03/22 10:22:43;;;;;;;18.50;15.87;;;14.20;1.00;;;;;;5082138;27;20659;-73
2024/03/22 10:25:11;;;;;;;20.30;17.10;;;14.30;1.00;;;;;;5077083;27;20450;-72
2024/03/22 10:27:40;;;;;;;17.07;14.60;;;14.50;1.00;;;;;;5078047;28;21018;-74
2024/03/22 10:30:09;;;;;;;17.90;15.43;;;14.50;1.00;;;;;;5081297;27;20512;-74
2024/03/22 10:32:37;;;;;;;19.87;15.93;;;14.40;1.00;;;;;;5075327;27;20477;-72
2024/03/22 10:35:05;;;;;;;18.23;15.87;;;14.10;1.00;;;;;;5077755;27;20480;-73
2024/03/22 10:37:33;;;;;;;19.10;16.33;;;14.10;1.00;;;;;;5073860;27;20465;-75
2024/03/22 10:40:07;;;;;;;17.23;15.17;;;14.30;1.00;;;;;;5081543;27;20462;-75
2024/03/22 10:42:36;;;;;;;18.27;14.67;;;14.30;1.00;;;;;;5076263;28;20445;-73
2024/03/22 10:45:02;;;;;;;16.47;14.50;;;14.50;1.00;;;;;;5086873;27;21172;-74
2024/03/22 10:47:32;;;;;;;16.07;14.37;;;14.60;1.00;;;;;;5087665;27;20818;-74
2024/03/22 10:50:05;;;;;;;16.27;14.03;;;14.70;1.00;;;;;;5100591;27;20472;-73
2024/03/22 10:52:35;;;;;;;19.10;15.03;;;15.00;1.00;;;;;;5105184;27;20460;-74
2024/03/22 10:55:04;;;;;;;16.87;14.23;;;15.30;1.00;;;;;;5084532;27;20453;-74
2024/03/22 10:57:31;;;;;;;17.57;15.20;;;15.70;1.00;;;;;;5081306;27;20473;-73
2024/03/22 10:59:58;;;;;;;17.17;14.67;;;15.90;1.00;;;;;;5079598;27;20459;-74
2024/03/22 11:02:28;;;;;;;17.97;15.97;;;16.20;1.00;;;;;;5080570;27;20451;-73
2024/03/22 11:04:57;;;;;;;19.83;15.37;;;16.50;1.00;;;;;;5083937;27;20447;-75
2024/03/22 11:07:28;;;;;;;16.70;14.10;;;16.60;1.00;;;;;;5084967;27;20439;-73
2024/03/22 11:09:57;;;;;;;16.30;13.47;;;16.40;1.00;;;;;;5080388;28;20460;-74
2024/03/22 11:12:26;;;;;;;17.70;14.97;;;16.00;1.00;;;;;;5094035;27;20473;-73
2024/03/22 11:14:53;;;;;;;15.80;14.20;;;15.90;1.00;;;;;;5099523;27;20526;-75
2024/03/22 11:17:24;;;;;;;17.67;13.93;;;16.20;1.00;;;;;;5086880;27;20588;-73
2024/03/22 11:19:50;;;;;;;17.23;14.60;;;16.50;1.00;;;;;;5086709;27;20489;-74
2024/03/22 11:22:17;;;;;;;17.10;14.90;;;16.90;1.00;;;;;;5092526;27;20910;-74
2024/03/22 11:24:43;;;;;;;17.87;15.00;;;16.90;1.00;;;;;;5079644;28;20454;-73
2024/03/22 11:27:11;;;;;;;19.27;15.03;;;16.30;1.00;;;;;;5078829;27;20550;-72
2024/03/22 11:29:40;;;;;;;16.63;14.50;;;15.70;1.00;;;;;;5075584;27;20893;-73
2024/03/22 11:32:09;;;;;;;19.70;14.17;;;15.40;1.00;;;;;;5094427;27;20995;-72
2024/03/22 11:34:37;;;;;;;19.43;14.80;;;15.30;1.00;;;;;;5106116;27;20497;-76
2024/03/22 11:37:05;;;;;;;19.17;15.00;;;15.30;1.00;;;;;;5082641;27;20462;-73
2024/03/22 11:39:31;;;;;;;19.53;15.20;;;15.10;1.00;;;;;;5081212;27;20509;-75
2024/03/22 11:41:58;;;;;;;17.20;14.90;;;14.90;1.00;;;;;;5092411;27;20492;-73
2024/03/22 11:44:25;;;;;;;19.93;13.77;;;14.80;1.00;;;;;;5108376;27;20456;-74
2024/03/22 11:46:53;;;;;;;16.20;14.00;;;14.60;1.00;;;;;;5094527;27;20461;-74
2024/03/22 11:49:19;;;;;;;17.70;14.73;;;14.60;1.00;;;;;;5085997;27;21294;-75
2024/03/22 11:51:47;;;;;;;18.23;14.97;;;14.40;1.00;;;;;;5083108;27;20489;-77
2024/03/22 11:54:14;;;;;;;14.50;13.00;;;14.30;1.00;;;;;;5085662;28;20992;-76
2024/03/22 11:56:41;;;;;;;19.90;14.10;;;14.20;1.00;;;;;;5081903;27;20489;-81
2024/03/22 11:59:08;;;;;;;22.77;15.30;;;14.20;1.00;;;;;;5090786;27;20465;-78
2024/03/22 12:01:34;;;;;;;15.50;13.50;;;14.20;1.00;;;;;;5106812;27;20457;-76
2024/03/22 12:04:02;;;;;;;15.13;13.53;;;14.20;1.00;;;;;;5103679;27;20436;-81
2024/03/22 12:06:28;;;;;;;17.10;13.30;;;14.20;1.00;;;;;;5103996;27;20474;-74
2024/03/22 12:08:57;;;;;;;16.20;13.93;;;13.90;1.00;;;;;;5100493;27;20831;-78
2024/03/22 12:11:23;;;;;;;16.97;14.50;;;13.60;1.00;;;;;;5107193;27;20525;-76
2024/03/22 12:13:50;;;;;;;20.17;15.17;;;13.40;1.00;;;;;;5108317;27;20517;-78
2024/03/22 12:16:16;;;;;;;17.20;14.23;;;13.40;1.00;;;;;;5105346;27;20994;-75
2024/03/22 12:18:43;;;;;;;24.17;16.20;;;13.20;1.00;;;;;;5108936;27;20458;-83
2024/03/22 12:21:09;;;;;;;17.43;15.47;;;13.00;1.00;;;;;;5113171;27;20453;-81
2024/03/22 12:23:36;;;;;;;20.43;17.20;;;12.90;1.00;;;;;;5113938;27;20459;-80
2024/03/22 12:26:03;;;;;;;19.97;16.97;;;12.90;1.00;;;;;;5112918;27;20463;-81
2024/03/22 12:28:30;;;;;;;18.40;16.17;;;12.70;1.00;;;;;;5112835;27;21472;-81
2024/03/22 12:30:57;;;;;;;20.03;16.50;;;12.70;1.00;;;;;;5109898;27;20468;-78
2024/03/22 12:33:24;;;;;;;18.37;15.57;;;12.60;1.00;;;;;;5093890;27;20493;-82
2024/03/22 12:35:50;;;;;;;20.70;15.60;;;12.50;1.00;;;;;;5101864;27;20468;-83
2024/03/22 12:38:17;;;;;;;19.30;15.10;;;12.40;1.00;;;;;;5088816;28;20460;-81
2024/03/22 12:40:44;;;;;;;23.03;16.77;;;12.20;1.00;;;;;;5090045;28;20478;-81
2024/03/22 12:43:13;;;;;;;20.90;16.67;;;12.20;1.00;;;;;;5099670;27;20455;-83